Time;durP1;ratioP1;P1;durP2;ratioP2;P2;SDS_P1;SDS_P2;PMS_P1;PMS_P2;Temp;Humidity;BMP_temperature;BMP_pressure;BME280_temperature;BME280_humidity;BME280_pressure;Samples;Min_cycle;Max_cycle;Signal;HPM_P1;HPM_P2
2023/12/25 00:02:01;;;;;;;12.48;2.88;;;;;;;9.97;100.00;100575.16;5035463;28;20500;-73
2023/12/25 00:04:27;;;;;;;15.27;3.35;;;;;;;9.92;100.00;100587.16;5017508;28;20037;-73
2023/12/25 00:06:52;;;;;;;20.90;2.97;;;;;;;9.90;100.00;100586.59;5017540;28;20033;-73
2023/12/25 00:09:18;;;;;;;11.48;2.65;;;;;;;9.89;100.00;100593.28;5001166;28;20072;-73
2023/12/25 00:11:44;;;;;;;19.92;3.40;;;;;;;9.86;100.00;100591.03;5033692;28;20445;-73
2023/12/25 00:14:09;;;;;;;18.02;2.65;;;;;;;9.81;100.00;100596.66;5017458;28;20062;-73
2023/12/25 00:16:35;;;;;;;23.92;2.85;;;;;;;9.82;100.00;100599.13;5017582;28;20123;-73
2023/12/25 00:19:00;;;;;;;17.20;2.92;;;;;;;9.81;100.00;100600.25;5013290;28;20053;-73
2023/12/25 00:21:30;;;;;;;15.00;2.80;;;;;;;9.79;100.00;100588.59;5014339;28;20375;-73
2023/12/25 00:23:56;;;;;;;12.68;2.95;;;;;;;9.78;100.00;100597.22;5031847;28;20029;-73
2023/12/25 00:26:22;;;;;;;16.92;2.60;;;;;;;9.79;100.00;100579.47;5013881;28;20033;-73
2023/12/25 00:28:47;;;;;;;17.23;2.30;;;;;;;9.77;100.00;100588.06;5018714;28;20030;-73
2023/12/25 00:31:13;;;;;;;13.05;2.58;;;;;;;9.77;100.00;100587.22;5037888;28;20028;-73
2023/12/25 00:33:38;;;;;;;20.70;3.20;;;;;;;9.78;100.00;100589.72;5004804;28;20021;-73
2023/12/25 00:36:04;;;;;;;14.35;2.92;;;;;;;9.78;100.00;100603.59;5038722;28;20083;-73
2023/12/25 00:38:30;;;;;;;12.90;2.72;;;;;;;9.80;100.00;100600.53;5004637;28;20044;-73
2023/12/25 00:40:55;;;;;;;11.85;2.58;;;;;;;9.80;100.00;100598.56;5037382;28;20037;-73
2023/12/25 00:43:21;;;;;;;14.93;2.42;;;;;;;9.80;100.00;100592.19;5021267;28;20466;-73
2023/12/25 00:45:46;;;;;;;14.77;2.88;;;;;;;9.80;100.00;100579.16;5037381;28;20061;-73
2023/12/25 00:48:11;;;;;;;10.88;2.05;;;;;;;9.80;100.00;100581.94;5037107;28;20041;-73
2023/12/25 00:50:37;;;;;;;13.77;2.75;;;;;;;9.82;100.00;100593.56;5037310;28;20688;-73
2023/12/25 00:53:03;;;;;;;13.50;2.80;;;;;;;9.82;100.00;100578.88;5020784;28;20060;-73
2023/12/25 00:55:28;;;;;;;11.98;2.40;;;;;;;9.82;100.00;100576.94;5003997;28;20048;-73
2023/12/25 00:57:54;;;;;;;14.82;2.20;;;;;;;9.84;100.00;100573.88;5020815;28;20029;-73
2023/12/25 01:00:20;;;;;;;12.82;2.15;;;;;;;9.83;100.00;100566.66;5004104;28;20022;-73
2023/12/25 01:02:45;;;;;;;6.78;2.10;;;;;;;9.84;100.00;100571.13;5004547;28;20033;-73
2023/12/25 01:05:11;;;;;;;12.50;2.00;;;;;;;9.84;100.00;100566.38;5004276;28;20091;-73
2023/12/25 01:07:36;;;;;;;10.13;1.90;;;;;;;9.86;100.00;100563.31;5020280;28;20060;-73
2023/12/25 01:10:02;;;;;;;8.90;1.70;;;;;;;9.87;100.00;100578.03;5004070;28;20053;-73
2023/12/25 01:12:27;;;;;;;8.80;2.00;;;;;;;9.82;100.00;100570.56;5020342;28;20064;-73
2023/12/25 01:14:53;;;;;;;8.32;1.60;;;;;;;9.84;100.00;100568.34;5004375;28;20474;-73
2023/12/25 01:17:19;;;;;;;6.57;1.60;;;;;;;9.88;100.00;100566.63;5003439;28;20018;-73
2023/12/25 01:19:44;;;;;;;11.15;1.73;;;;;;;9.88;100.00;100569.41;4987812;28;20049;-73
2023/12/25 01:22:10;;;;;;;13.23;1.83;;;;;;;9.89;100.00;100573.84;5003656;28;20394;-73
2023/12/25 01:24:35;;;;;;;9.07;1.75;;;;;;;9.89;100.00;100576.63;5036434;28;20040;-73
2023/12/25 01:27:01;;;;;;;4.70;1.38;;;;;;;9.91;100.00;100574.38;5037569;28;20030;-73
2023/12/25 01:29:26;;;;;;;6.50;1.40;;;;;;;9.89;100.00;100576.63;5036512;28;20025;-73
2023/12/25 01:31:52;;;;;;;12.35;1.73;;;;;;;9.91;100.00;100568.00;5036696;28;20048;-73
2023/12/25 01:34:18;;;;;;;8.93;1.33;;;;;;;9.92;100.00;100572.41;5036405;28;20052;-73
2023/12/25 01:36:44;;;;;;;6.45;1.58;;;;;;;9.92;100.00;100570.50;5036239;28;20030;-73
2023/12/25 01:39:09;;;;;;;8.85;1.42;;;;;;;9.92;100.00;100570.50;5019045;28;20026;-73
2023/12/25 01:41:34;;;;;;;5.93;1.25;;;;;;;9.93;100.00;100563.81;5031941;28;20029;-73
2023/12/25 01:44:00;;;;;;;6.70;1.40;;;;;;;9.92;100.00;100567.72;5019787;28;20032;-73
2023/12/25 01:46:25;;;;;;;6.60;1.25;;;;;;;9.92;100.00;100556.63;5003334;28;20029;-73
2023/12/25 01:48:51;;;;;;;9.02;1.50;;;;;;;9.92;100.00;100558.56;5019862;28;20033;-73
2023/12/25 01:51:18;;;;;;;4.82;1.48;;;;;;;9.93;100.00;100558.28;5036091;28;20078;-73
2023/12/25 01:53:44;;;;;;;5.68;0.95;;;;;;;9.95;100.00;100561.59;5019670;28;20030;-73
2023/12/25 01:56:09;;;;;;;5.63;1.27;;;;;;;9.93;100.00;100569.38;5002918;28;20029;-73
2023/12/25 01:58:35;;;;;;;4.93;1.00;;;;;;;9.95;100.00;100581.03;5003457;28;20124;-72
2023/12/25 02:01:00;;;;;;;11.07;1.30;;;;;;;9.94;100.00;100579.34;5036862;28;20060;-73
2023/12/25 02:03:25;;;;;;;7.13;1.20;;;;;;;9.96;100.00;100593.75;5036186;28;20068;-73
2023/12/25 02:05:51;;;;;;;9.32;1.40;;;;;;;9.97;100.00;100609.31;5019498;28;20033;-73
2023/12/25 02:08:17;;;;;;;10.48;1.50;;;;;;;9.98;100.00;100613.72;5019402;28;20034;-73
2023/12/25 02:10:42;;;;;;;4.30;1.00;;;;;;;9.97;100.00;100606.53;5035636;28;20030;-73
2023/12/25 02:13:07;;;;;;;7.88;1.10;;;;;;;9.98;100.00;100619.28;5035876;28;20025;-73
2023/12/25 02:15:33;;;;;;;3.38;1.17;;;;;;;9.97;100.00;100619.56;5035825;28;20033;-73
2023/12/25 02:17:58;;;;;;;6.50;1.60;;;;;;;9.97;100.00;100623.19;5035040;28;20034;-73
2023/12/25 02:20:24;;;;;;;8.48;1.52;;;;;;;9.98;100.00;100621.22;5018845;28;20061;-73
2023/12/25 02:22:49;;;;;;;11.30;1.40;;;;;;;9.97;100.00;100628.72;5015649;28;20395;-73
2023/12/25 02:25:31;;;;;;;5.55;1.38;;;;;;;9.99;100.00;100628.44;5018626;28;20025;-73
2023/12/25 02:27:57;;;;;;;6.50;1.40;;;;;;;9.98;100.00;100630.38;5036662;28;20029;-73
2023/12/25 02:30:22;;;;;;;8.20;1.55;;;;;;;9.98;100.00;100635.94;5018892;28;20032;-73
2023/12/25 02:32:48;;;;;;;9.85;1.70;;;;;;;9.98;100.00;100638.69;5019126;28;20670;-73
2023/12/25 02:35:13;;;;;;;10.15;2.05;;;;;;;9.98;100.00;100637.88;5035548;28;20083;-73
2023/12/25 02:37:39;;;;;;;8.68;1.65;;;;;;;9.97;100.00;100637.06;5036398;28;20029;-73
2023/12/25 02:40:06;;;;;;;7.93;1.52;;;;;;;9.97;100.00;100631.50;5002290;28;20489;-73
2023/12/25 02:42:31;;;;;;;7.03;1.10;;;;;;;9.97;100.00;100634.28;5018829;28;20037;-73
2023/12/25 02:44:57;;;;;;;6.95;1.08;;;;;;;9.98;100.00;100624.00;5035174;28;20060;-73
2023/12/25 02:47:22;;;;;;;5.40;1.42;;;;;;;9.96;100.00;100618.72;5036441;28;20041;-73
2023/12/25 02:49:47;;;;;;;8.20;1.60;;;;;;;9.94;100.00;100604.31;5002284;28;20045;-73
2023/12/25 02:52:13;;;;;;;6.40;1.33;;;;;;;9.94;100.00;100607.09;5001480;28;20034;-73
2023/12/25 02:54:38;;;;;;;8.70;1.95;;;;;;;9.94;100.00;100609.03;5018316;28;20029;-73
2023/12/25 02:57:04;;;;;;;4.32;1.20;;;;;;;9.95;100.00;100613.50;5018570;28;20092;-73
2023/12/25 02:59:29;;;;;;;5.45;1.30;;;;;;;9.94;100.00;100607.09;5018497;28;20101;-73
2023/12/25 03:01:55;;;;;;;6.20;1.20;;;;;;;9.94;100.00;100601.53;4997948;28;20058;-73
2023/12/25 03:04:20;;;;;;;7.50;1.52;;;;;;;9.94;100.00;100607.09;5050838;28;20029;-73
2023/12/25 03:06:46;;;;;;;5.82;1.27;;;;;;;9.93;100.00;100611.00;5034786;28;20401;-73
2023/12/25 03:09:12;;;;;;;7.15;1.40;;;;;;;9.93;100.00;100615.72;5034570;28;20021;-73
2023/12/25 03:11:37;;;;;;;5.85;1.42;;;;;;;9.93;100.00;100616.53;5018031;28;20033;-73
2023/12/25 03:14:03;;;;;;;7.07;1.30;;;;;;;9.92;100.00;100606.56;5001162;28;20041;-73
2023/12/25 03:16:29;;;;;;;5.07;1.48;;;;;;;9.92;100.00;100608.50;5034845;28;20394;-73
2023/12/25 03:18:54;;;;;;;6.40;1.35;;;;;;;9.90;100.00;100600.47;4985523;28;20042;-73
2023/12/25 03:21:21;;;;;;;4.38;1.30;;;;;;;9.91;100.00;100596.56;5001620;28;20034;-73
2023/12/25 03:23:46;;;;;;;6.80;1.20;;;;;;;9.90;100.00;100589.38;5034595;28;20029;-73
2023/12/25 03:26:12;;;;;;;6.03;1.60;;;;;;;9.89;100.00;100593.28;5034066;28;20036;-73
2023/12/25 03:28:37;;;;;;;5.80;1.23;;;;;;;9.86;100.00;100593.81;5034329;28;20064;-73
2023/12/25 03:31:03;;;;;;;4.32;1.17;;;;;;;9.88;100.00;100594.38;5035692;28;20030;-73
2023/12/25 03:33:28;;;;;;;6.38;1.25;;;;;;;9.88;100.00;100597.16;5034589;28;20043;-73
2023/12/25 03:35:54;;;;;;;5.32;1.25;;;;;;;9.89;100.00;100598.81;5014821;28;20030;-73
2023/12/25 03:38:19;;;;;;;3.95;1.02;;;;;;;9.87;100.00;100601.03;5030407;28;20029;-73
2023/12/25 03:40:45;;;;;;;5.25;0.93;;;;;;;9.87;100.00;100600.22;5017647;28;20029;-73
2023/12/25 03:43:10;;;;;;;6.15;0.98;;;;;;;9.86;100.00;100607.69;5001735;28;20032;-73
2023/12/25 03:45:36;;;;;;;3.83;1.17;;;;;;;9.85;100.00;100597.72;5017806;28;20033;-73
2023/12/25 03:48:01;;;;;;;4.97;0.98;;;;;;;9.87;100.00;100605.78;5017955;28;20037;-73
2023/12/25 03:50:26;;;;;;;7.22;0.90;;;;;;;9.87;100.00;100589.13;5035357;28;20037;-73
2023/12/25 03:52:52;;;;;;;5.18;1.15;;;;;;;9.82;100.00;100579.72;5000541;28;20038;-73
2023/12/25 03:55:17;;;;;;;4.50;1.13;;;;;;;9.82;100.00;100588.03;5035080;28;20036;-73
2023/12/25 03:57:43;;;;;;;3.55;1.10;;;;;;;9.83;100.00;100588.84;5020871;28;20034;-73
2023/12/25 04:00:09;;;;;;;5.00;1.35;;;;;;;9.82;100.00;100601.91;5025222;28;20557;-73
2023/12/25 04:02:34;;;;;;;6.63;1.30;;;;;;;9.83;100.00;100594.41;5047301;28;20057;-73
2023/12/25 04:05:00;;;;;;;4.38;0.85;;;;;;;9.82;100.00;100582.47;5018452;28;20030;-73
2023/12/25 04:07:25;;;;;;;6.20;0.98;;;;;;;9.82;100.00;100582.47;5003697;28;20040;-73
2023/12/25 04:09:51;;;;;;;4.22;1.05;;;;;;;9.81;100.00;100580.00;5021494;28;20026;-73
2023/12/25 04:12:16;;;;;;;3.35;1.00;;;;;;;9.80;100.00;100586.66;5038005;28;20026;-73
2023/12/25 04:14:42;;;;;;;4.20;1.15;;;;;;;9.80;100.00;100587.47;5021404;28;20025;-73
2023/12/25 04:17:07;;;;;;;8.85;1.30;;;;;;;9.79;100.00;100585.00;5004428;28;20034;-73
2023/12/25 04:19:33;;;;;;;6.03;1.17;;;;;;;9.78;100.00;100591.69;5017942;28;20462;-73
2023/12/25 04:21:58;;;;;;;6.35;1.42;;;;;;;9.76;100.00;100583.63;5000473;28;20052;-73
2023/12/25 04:24:24;;;;;;;6.30;1.08;;;;;;;9.74;100.00;100576.72;5021157;28;20539;-73
2023/12/25 04:26:49;;;;;;;5.80;1.25;;;;;;;9.74;100.00;100579.50;5004736;28;20021;-73
2023/12/25 04:29:15;;;;;;;6.18;1.17;;;;;;;9.75;100.00;100576.44;5037708;28;20033;-73
2023/12/25 04:31:40;;;;;;;5.40;1.25;;;;;;;9.75;100.00;100578.34;5037484;28;20029;-74
2023/12/25 04:34:05;;;;;;;5.28;1.00;;;;;;;9.74;100.00;100579.50;5004885;28;20029;-73
2023/12/25 04:36:31;;;;;;;9.48;1.15;;;;;;;9.72;100.00;100576.16;5021023;28;20040;-73
2023/12/25 04:38:58;;;;;;;9.88;1.63;;;;;;;9.70;100.00;100573.69;5037508;28;20029;-73
2023/12/25 04:41:23;;;;;;;4.97;1.20;;;;;;;9.67;100.00;100556.78;5021086;28;20045;-73
2023/12/25 04:43:50;;;;;;;10.38;1.80;;;;;;;9.68;100.00;100558.47;5037432;28;20037;-73
2023/12/25 04:46:16;;;;;;;11.20;2.08;;;;;;;9.66;100.00;100553.19;5021168;28;20044;-73
2023/12/25 04:48:42;;;;;;;7.05;1.35;;;;;;;9.67;100.00;100551.22;5037386;28;20056;-73
2023/12/25 04:51:07;;;;;;;6.50;0.95;;;;;;;9.63;100.00;100551.81;5038390;28;20026;-73
2023/12/25 04:53:34;;;;;;;6.22;1.17;;;;;;;9.60;100.00;100552.38;5037181;28;20048;-73
2023/12/25 04:56:00;;;;;;;6.22;0.88;;;;;;;9.58;100.00;100545.47;5037062;28;20029;-73
2023/12/25 04:58:25;;;;;;;8.15;1.25;;;;;;;9.58;100.00;100543.53;5004010;28;20087;-73
2023/12/25 05:00:51;;;;;;;9.43;1.38;;;;;;;9.55;100.00;100544.09;5017599;28;20029;-73
2023/12/25 05:03:17;;;;;;;9.65;1.63;;;;;;;9.52;100.00;100541.06;5032120;28;20029;-73
2023/12/25 05:05:42;;;;;;;5.00;1.23;;;;;;;9.50;100.00;100549.69;5018082;28;20152;-73
2023/12/25 05:08:08;;;;;;;9.25;1.38;;;;;;;9.48;100.00;100551.91;5036942;28;20473;-73
2023/12/25 05:10:33;;;;;;;8.25;1.40;;;;;;;9.49;100.00;100545.25;5003842;28;20036;-73
2023/12/25 05:12:59;;;;;;;15.15;1.85;;;;;;;9.46;100.00;100545.81;5038269;28;20030;-73
2023/12/25 05:15:24;;;;;;;12.15;1.58;;;;;;;9.43;100.00;100538.06;5019376;28;20437;-73
2023/12/25 05:17:49;;;;;;;7.20;1.60;;;;;;;9.39;100.00;100528.69;5019893;28;20032;-73
2023/12/25 05:20:15;;;;;;;6.57;1.73;;;;;;;9.36;100.00;100519.00;5020049;28;20072;-73
2023/12/25 05:22:40;;;;;;;12.60;2.25;;;;;;;9.37;100.00;100519.81;5020210;28;20037;-73
2023/12/25 05:25:06;;;;;;;9.48;1.70;;;;;;;9.34;100.00;100521.22;5037773;28;20037;-73
2023/12/25 05:27:32;;;;;;;9.52;1.95;;;;;;;9.29;100.00;100528.72;5017022;28;20037;-73
2023/12/25 05:29:58;;;;;;;10.95;2.15;;;;;;;9.29;100.00;100532.31;5028251;28;20037;-73
2023/12/25 05:32:24;;;;;;;6.30;1.75;;;;;;;9.27;100.00;100528.19;5036714;28;20025;-73
2023/12/25 05:34:49;;;;;;;10.55;1.67;;;;;;;9.20;100.00;100530.44;5037614;28;20033;-73
2023/12/25 05:37:15;;;;;;;14.68;2.13;;;;;;;9.16;100.00;100524.63;5037888;28;20033;-73
2023/12/25 05:39:40;;;;;;;11.93;2.20;;;;;;;9.17;100.00;100518.81;5019401;28;20033;-73
2023/12/25 05:42:07;;;;;;;9.93;2.53;;;;;;;9.06;100.00;100525.50;5003528;28;20103;-73
2023/12/25 05:44:32;;;;;;;12.40;2.28;;;;;;;9.06;100.00;100524.69;5036199;28;20033;-73
2023/12/25 05:46:58;;;;;;;15.05;2.25;;;;;;;9.04;100.00;100530.50;5003438;28;20036;-73
2023/12/25 05:49:23;;;;;;;10.85;1.95;;;;;;;9.04;100.00;100529.69;5036345;28;20121;-73
2023/12/25 05:51:49;;;;;;;13.35;1.83;;;;;;;8.96;100.00;100525.53;5036160;28;20083;-73
2023/12/25 05:54:14;;;;;;;14.70;2.50;;;;;;;8.94;100.00;100522.22;5003437;28;20033;-73
2023/12/25 05:56:40;;;;;;;13.23;2.20;;;;;;;8.93;100.00;100517.81;5037034;28;20545;-73
2023/12/25 05:59:05;;;;;;;13.15;1.98;;;;;;;8.87;100.00;100516.19;5019551;28;20033;-73
2023/12/25 06:01:31;;;;;;;8.27;1.60;;;;;;;8.84;100.00;100525.88;5019420;28;20042;-73
2023/12/25 06:03:57;;;;;;;10.60;1.52;;;;;;;8.79;100.00;100527.84;5037365;28;20052;-73
2023/12/25 06:06:23;;;;;;;10.68;1.77;;;;;;;8.73;100.00;100533.38;5003308;28;20660;-73
2023/12/25 06:08:48;;;;;;;11.30;2.10;;;;;;;8.72;100.00;100531.72;5019192;28;20029;-73
2023/12/25 06:11:14;;;;;;;14.15;2.08;;;;;;;8.73;100.00;100538.91;5002960;28;20429;-73
2023/12/25 06:13:39;;;;;;;10.75;1.67;;;;;;;8.67;100.00;100542.81;5002774;28;20033;-73
2023/12/25 06:16:05;;;;;;;11.32;2.08;;;;;;;8.66;100.00;100541.16;5002954;28;20120;-73
2023/12/25 06:18:31;;;;;;;13.20;1.65;;;;;;;8.66;100.00;100543.94;5001953;28;20033;-73
2023/12/25 06:20:56;;;;;;;15.55;2.65;;;;;;;8.67;100.00;100544.75;5018851;28;20041;-73
2023/12/25 06:23:21;;;;;;;13.73;2.15;;;;;;;8.66;100.00;100549.47;4999255;28;20034;-73
2023/12/25 06:25:47;;;;;;;13.45;1.98;;;;;;;8.67;100.00;100548.34;5017797;28;20029;-73
2023/12/25 06:28:12;;;;;;;8.95;2.10;;;;;;;8.68;100.00;100554.72;5015419;28;20573;-73
2023/12/25 06:30:38;;;;;;;13.57;2.60;;;;;;;8.69;100.00;100564.66;5018244;28;20022;-73
2023/12/25 06:33:04;;;;;;;13.63;2.72;;;;;;;8.71;100.00;100563.28;5035318;28;20394;-73
2023/12/25 06:35:29;;;;;;;13.38;1.98;;;;;;;8.72;100.00;100561.38;5051746;28;20112;-73
2023/12/25 06:37:55;;;;;;;15.65;2.28;;;;;;;8.74;100.00;100561.88;5018590;28;20030;-73
2023/12/25 06:40:20;;;;;;;13.35;2.42;;;;;;;8.76;100.00;100569.94;5002230;28;20044;-73
2023/12/25 06:42:46;;;;;;;18.67;2.60;;;;;;;8.79;100.00;100569.38;5018866;28;20030;-73
2023/12/25 06:45:11;;;;;;;13.88;2.63;;;;;;;8.80;100.00;100576.56;5018965;28;20033;-73
2023/12/25 06:47:37;;;;;;;16.23;1.83;;;;;;;8.81;100.00;100572.69;4986007;28;20026;-73
2023/12/25 06:50:02;;;;;;;14.07;2.00;;;;;;;8.85;100.00;100579.31;5035354;28;20049;-73
2023/12/25 06:52:28;;;;;;;14.70;2.22;;;;;;;8.88;100.00;100575.97;4998965;28;20038;-73
2023/12/25 06:54:53;;;;;;;10.55;2.15;;;;;;;8.88;100.00;100573.22;5033994;28;20037;-73
2023/12/25 06:57:19;;;;;;;12.93;2.55;;;;;;;8.90;100.00;100571.00;5002021;28;20087;-73
2023/12/25 06:59:45;;;;;;;10.20;1.80;;;;;;;8.90;100.00;100577.38;5018448;28;20638;-73
2023/12/25 07:02:10;;;;;;;17.30;2.75;;;;;;;8.92;100.00;100572.38;5034902;28;20029;-73
2023/12/25 07:04:36;;;;;;;17.20;2.33;;;;;;;8.95;100.00;100568.22;4979323;28;20030;-73
2023/12/25 07:07:02;;;;;;;9.25;2.30;;;;;;;8.94;100.00;100583.16;5043613;28;20112;-73
2023/12/25 07:09:27;;;;;;;11.57;2.22;;;;;;;8.95;100.00;100574.59;5018221;28;20107;-73
2023/12/25 07:11:53;;;;;;;13.38;2.85;;;;;;;8.98;100.00;100578.72;5002023;28;20026;-73
2023/12/25 07:14:18;;;;;;;15.00;2.53;;;;;;;8.98;100.00;100580.69;5034609;28;20029;-73
2023/12/25 07:16:44;;;;;;;9.75;1.90;;;;;;;8.99;100.00;100580.38;5034562;28;20032;-73
2023/12/25 07:19:09;;;;;;;18.55;2.97;;;;;;;9.01;100.00;100583.72;5033939;28;20131;-73
2023/12/25 07:21:35;;;;;;;14.80;2.22;;;;;;;9.03;100.00;100587.03;5022604;28;20076;-73
2023/12/25 07:24:00;;;;;;;14.38;2.40;;;;;;;9.04;100.00;100590.63;5014132;28;20033;-73
2023/12/25 07:26:26;;;;;;;11.02;2.17;;;;;;;9.04;100.00;100591.44;5017537;28;20029;-73
2023/12/25 07:28:51;;;;;;;18.98;3.13;;;;;;;9.05;100.00;100584.78;4998397;28;20672;-73
2023/12/25 07:31:17;;;;;;;19.20;2.42;;;;;;;9.05;100.00;100587.56;5026410;28;20021;-73
2023/12/25 07:33:43;;;;;;;15.00;3.17;;;;;;;9.07;100.00;100588.13;5017921;28;20037;-73
2023/12/25 07:36:09;;;;;;;17.95;2.85;;;;;;;9.06;100.00;100594.78;5001432;28;20029;-73
2023/12/25 07:38:37;;;;;;;17.55;2.67;;;;;;;9.05;100.00;100593.09;5001080;28;20036;-73
2023/12/25 07:41:07;;;;;;;17.35;2.58;;;;;;;9.07;100.00;100592.81;5001777;28;20032;-73
2023/12/25 07:43:32;;;;;;;14.15;2.78;;;;;;;9.06;100.00;100592.00;5034371;28;20021;-73
2023/12/25 07:45:58;;;;;;;14.13;2.45;;;;;;;9.06;100.00;100592.00;5017891;28;20037;-73
2023/12/25 07:48:23;;;;;;;19.73;2.70;;;;;;;9.06;100.00;100602.25;5034300;28;20074;-73
2023/12/25 07:50:51;;;;;;;13.48;3.05;;;;;;;9.07;100.00;100604.72;5035458;28;20025;-73
2023/12/25 07:53:17;;;;;;;21.38;3.17;;;;;;;9.06;100.00;100603.09;5034165;28;20104;-73
2023/12/25 07:55:42;;;;;;;11.80;2.50;;;;;;;9.10;100.00;100603.34;5001471;28;20029;-73
2023/12/25 07:58:10;;;;;;;15.80;2.90;;;;;;;9.10;100.00;100600.56;5034210;28;20041;-73
2023/12/25 08:00:36;;;;;;;14.90;2.80;;;;;;;9.10;100.00;100601.41;5035613;28;20029;-73
2023/12/25 08:03:01;;;;;;;14.57;2.58;;;;;;;9.11;100.00;100605.84;5001170;28;20021;-73
2023/12/25 08:05:27;;;;;;;13.00;2.70;;;;;;;9.10;100.00;100612.47;5017534;28;20029;-73
2023/12/25 08:07:52;;;;;;;15.32;3.03;;;;;;;9.11;100.00;100611.38;5033862;28;20067;-73
2023/12/25 08:10:17;;;;;;;16.52;3.03;;;;;;;9.12;100.00;100610.25;5033891;28;20075;-73
2023/12/25 08:12:43;;;;;;;18.67;3.58;;;;;;;9.13;100.00;100611.09;5017432;28;20037;-73
2023/12/25 08:15:12;;;;;;;19.42;2.50;;;;;;;9.15;100.00;100611.66;5034069;28;20079;-73
2023/12/25 08:17:37;;;;;;;14.65;2.40;;;;;;;9.15;100.00;100609.69;4999844;28;20115;-73
2023/12/25 08:20:05;;;;;;;13.65;2.67;;;;;;;9.17;100.00;100618.56;5027871;28;20057;-73
2023/12/25 08:22:31;;;;;;;13.38;2.30;;;;;;;9.18;100.00;100613.84;4995595;28;20026;-73
2023/12/25 08:24:56;;;;;;;12.98;2.17;;;;;;;9.21;100.00;100621.59;5009978;28;20040;-73
2023/12/25 08:27:21;;;;;;;18.98;2.75;;;;;;;9.21;100.00;100627.13;4984929;28;20029;-73
2023/12/25 08:29:47;;;;;;;16.02;2.45;;;;;;;9.23;100.00;100624.91;5027007;28;20548;-73
2023/12/25 08:32:13;;;;;;;17.42;2.80;;;;;;;9.24;100.00;100623.81;5014264;28;20041;-73
2023/12/25 08:34:39;;;;;;;14.93;2.60;;;;;;;9.25;100.00;100624.63;5027941;28;20026;-73
2023/12/25 08:37:05;;;;;;;12.95;2.30;;;;;;;9.27;100.00;100626.00;5033735;28;20026;-73
2023/12/25 08:39:31;;;;;;;12.05;2.20;;;;;;;9.30;100.00;100630.16;5033574;28;20044;-73
2023/12/25 08:42:00;;;;;;;14.98;3.30;;;;;;;9.30;100.00;100624.59;5020370;28;20036;-73
2023/12/25 08:44:26;;;;;;;16.27;2.53;;;;;;;9.32;100.00;100631.53;5033728;28;20029;-73
2023/12/25 08:46:52;;;;;;;18.73;2.97;;;;;;;9.33;100.00;100626.81;5033851;28;20087;-73
2023/12/25 08:49:17;;;;;;;12.68;2.60;;;;;;;9.33;100.00;100619.34;5036418;28;20029;-73
2023/12/25 08:51:43;;;;;;;15.13;2.63;;;;;;;9.36;100.00;100629.00;5001234;28;20049;-73
2023/12/25 08:54:08;;;;;;;12.95;2.72;;;;;;;9.37;100.00;100628.75;5013955;28;20432;-73
2023/12/25 08:56:34;;;;;;;14.77;2.80;;;;;;;9.38;100.00;100627.63;5037122;28;20036;-73
2023/12/25 08:59:00;;;;;;;11.70;2.60;;;;;;;9.42;100.00;100621.50;5037148;28;20532;-73
2023/12/25 09:01:26;;;;;;;21.02;2.92;;;;;;;9.44;100.00;100622.06;5020616;28;20029;-73
2023/12/25 09:03:52;;;;;;;12.77;2.25;;;;;;;9.46;100.00;100628.16;5000829;28;20028;-73
2023/12/25 09:06:17;;;;;;;13.05;2.40;;;;;;;9.49;100.00;100622.88;5036688;28;20037;-73
2023/12/25 09:08:42;;;;;;;15.05;2.67;;;;;;;9.51;100.00;100631.75;5036921;28;20033;-73
2023/12/25 09:11:09;;;;;;;14.00;2.40;;;;;;;9.54;100.00;100631.16;5036857;28;20037;-73
2023/12/25 09:13:34;;;;;;;21.45;2.75;;;;;;;9.59;100.00;100628.38;5037099;28;20030;-73
2023/12/25 09:16:00;;;;;;;14.07;3.63;;;;;;;9.63;100.00;100625.84;5003817;28;20025;-73
2023/12/25 09:18:26;;;;;;;18.20;2.67;;;;;;;9.69;100.00;100626.66;4987368;28;20029;-72
2023/12/25 09:20:51;;;;;;;13.05;2.90;;;;;;;9.74;100.00;100627.47;5020038;28;20036;-73
2023/12/25 09:23:18;;;;;;;17.58;2.50;;;;;;;9.78;100.00;100624.97;5011181;28;20033;-73
2023/12/25 09:25:43;;;;;;;14.77;2.58;;;;;;;9.81;100.00;100625.22;5037244;28;20040;-73
2023/12/25 09:28:09;;;;;;;13.55;2.25;;;;;;;9.88;100.00;100627.66;5000527;28;20466;-73
2023/12/25 09:30:34;;;;;;;12.43;3.10;;;;;;;9.91;100.00;100624.31;5019905;28;20612;-73
2023/12/25 09:33:00;;;;;;;9.38;1.95;;;;;;;9.97;100.00;100620.41;5037750;28;20040;-73
2023/12/25 09:35:25;;;;;;;16.30;2.85;;;;;;;10.01;100.00;100635.34;5036799;28;20026;-73
2023/12/25 09:37:51;;;;;;;16.38;2.63;;;;;;;10.03;100.00;100632.31;5036455;28;20037;-73
2023/12/25 09:40:16;;;;;;;12.32;2.40;;;;;;;10.09;100.00;100641.44;5003160;28;20053;-73
2023/12/25 09:42:43;;;;;;;12.32;2.40;;;;;;;10.12;100.00;100643.63;5037949;28;20588;-73
2023/12/25 09:45:09;;;;;;;14.27;2.53;;;;;;;10.16;100.00;100642.72;5000300;28;20100;-73
2023/12/25 09:47:35;;;;;;;17.92;2.95;;;;;;;10.21;100.00;100644.66;5016736;28;20471;-73
2023/12/25 09:50:00;;;;;;;12.60;2.30;;;;;;;10.23;100.00;100647.97;5032928;28;20049;-73
2023/12/25 09:52:26;;;;;;;13.55;2.67;;;;;;;10.24;100.00;100647.69;5029449;28;20029;-73
2023/12/25 09:54:52;;;;;;;13.25;2.47;;;;;;;10.28;100.00;100651.59;5019354;28;20030;-73
2023/12/25 09:57:18;;;;;;;11.95;2.38;;;;;;;10.28;100.00;100650.75;5019632;28;20390;-73
2023/12/25 09:59:43;;;;;;;14.18;2.70;;;;;;;10.32;100.00;100645.44;5002882;28;20037;-73
2023/12/25 10:02:09;;;;;;;9.65;2.47;;;;;;;10.33;100.00;100649.88;5036157;28;20036;-73
2023/12/25 10:04:35;;;;;;;16.85;3.00;;;;;;;10.35;100.00;100651.25;5037360;28;20033;-73
2023/12/25 10:07:01;;;;;;;15.35;2.85;;;;;;;10.38;100.00;100656.22;4987073;28;20030;-73
2023/12/25 10:09:26;;;;;;;14.07;2.63;;;;;;;10.37;100.00;100654.56;5019296;28;20099;-73
2023/12/25 10:11:52;;;;;;;11.50;2.15;;;;;;;10.38;100.00;100660.94;5019496;28;20029;-73
2023/12/25 10:14:17;;;;;;;20.80;2.67;;;;;;;10.40;100.00;100654.00;5036871;28;20029;-73
2023/12/25 10:16:43;;;;;;;11.85;2.60;;;;;;;10.41;100.00;100668.69;5019099;28;20025;-73
2023/12/25 10:19:08;;;;;;;19.30;3.03;;;;;;;10.45;100.00;100662.28;4999482;28;20100;-73
2023/12/25 10:21:44;;;;;;;14.25;2.47;;;;;;;10.47;100.00;100660.06;5027192;28;20040;-74
2023/12/25 10:24:14;;;;;;;15.63;2.80;;;;;;;10.49;100.00;100668.06;5003199;28;20021;-73
2023/12/25 10:26:39;;;;;;;10.88;2.33;;;;;;;10.50;100.00;100666.94;5035504;28;20033;-73
2023/12/25 10:29:10;;;;;;;12.73;2.13;;;;;;;10.52;100.00;100656.38;5018987;28;20044;-73
2023/12/25 10:31:43;;;;;;;9.25;2.10;;;;;;;10.52;100.00;100657.22;5000227;28;20057;-73
2023/12/25 10:34:08;;;;;;;13.25;2.55;;;;;;;10.54;100.00;100653.34;5015995;28;20037;-73
2023/12/25 10:36:34;;;;;;;15.80;2.63;;;;;;;10.54;100.00;100645.81;5031826;28;20060;-73
2023/12/25 10:39:00;;;;;;;13.07;2.38;;;;;;;10.57;100.00;100647.19;5036510;28;20056;-73
2023/12/25 10:41:27;;;;;;;18.58;2.83;;;;;;;10.60;100.00;100650.22;5036147;28;20025;-73
2023/12/25 10:43:52;;;;;;;10.27;2.22;;;;;;;10.60;100.00;100646.59;5035300;28;20071;-73
2023/12/25 10:46:25;;;;;;;10.57;2.03;;;;;;;10.61;100.00;100648.25;5034873;28;20041;-73
2023/12/25 10:48:52;;;;;;;8.57;2.38;;;;;;;10.63;100.00;100646.84;5035304;28;20063;-73
2023/12/25 10:51:40;;;;;;;11.85;1.92;;;;;;;10.62;100.00;100641.59;5035133;28;20045;-73
2023/12/25 10:54:07;;;;;;;10.70;2.50;;;;;;;10.66;100.00;100645.44;5015429;28;20541;-73
2023/12/25 10:56:36;;;;;;;18.00;2.90;;;;;;;10.67;100.00;100636.81;5017402;28;20040;-73
2023/12/25 10:59:16;;;;;;;12.90;2.50;;;;;;;10.67;100.00;100633.19;5035171;28;20021;-73
2023/12/25 11:01:46;;;;;;;13.35;1.98;;;;;;;10.69;100.00;100640.13;5018882;28;20466;-73
2023/12/25 11:04:15;;;;;;;11.60;2.25;;;;;;;10.73;100.00;100623.72;5035023;28;20021;-73
2023/12/25 11:06:43;;;;;;;16.40;2.50;;;;;;;10.76;100.00;100628.69;4998816;28;20030;-73
2023/12/25 11:09:09;;;;;;;8.25;1.75;;;;;;;10.75;100.00;100629.78;5030440;28;20069;-73
2023/12/25 11:11:34;;;;;;;10.90;2.10;;;;;;;10.83;100.00;100633.88;5014411;28;20026;-73
2023/12/25 11:14:00;;;;;;;12.15;1.85;;;;;;;10.82;100.00;100630.28;5014081;28;20053;-73